ENHV/HVG METAR and TAF weather

Enter ICAO airport designator
Station Type Date Time Source
ENHV METAR 2024/04/17 18:20 UTC NOAA

ENHV 171820Z 12009KT 9999 SCT030 M02/M09 Q1020


Station Type Date Time Source
ENHV Decoded METAR 2024/04/17 18:20 UTC NOAA

Honningsvag / Valan, Norway (ENHV) 71-01N 025-59E 14M
Apr 17, 2024 - 02:20 PM EDT / 2024.04.17 1820 UTC
Wind: from the ESE (120 degrees) at 10 MPH (9 KT):0
Visibility: greater than 7 mile(s):0
Sky conditions: partly cloudy
Temperature: 28 F (-2 C)
Windchill: 19 F (-7 C):1
Dew Point: 15 F (-9 C)
Relative Humidity: 58%
Pressure (altimeter): 30.12 in. Hg (1020 hPa)
ob: ENHV 171820Z 12009KT 9999 SCT030 M02/M09 Q1020
cycle: 18

Station Type Date Time Source
ENHV TAF UTC NOAA

Error!

Example: see airport list